Time;durP1;ratioP1;P1;durP2;ratioP2;P2;SDS_P1;SDS_P2;PMS_P1;PMS_P2;Temp;Humidity;BMP_temperature;BMP_pressure;BME280_temperature;BME280_humidity;BME280_pressure;Samples;Min_cycle;Max_cycle;Signal;HPM_P1;HPM_P2
2021/12/06 00:02:05;;;;;;;20.23;14.38;;;2.90;99.90;;;;;;5023080;28;20037;-64
2021/12/06 00:04:36;;;;;;;16.27;10.80;;;2.90;99.90;;;;;;5037489;28;20120;-64
2021/12/06 00:07:08;;;;;;;15.27;10.57;;;2.90;99.90;;;;;;5031347;28;20041;-64
2021/12/06 00:09:33;;;;;;;16.48;11.77;;;2.90;99.90;;;;;;5028856;28;20607;-65
2021/12/06 00:12:01;;;;;;;14.88;10.73;;;2.90;99.90;;;;;;5033045;28;20045;-65
2021/12/06 00:14:31;;;;;;;17.25;12.00;;;2.90;99.90;;;;;;5015516;28;20040;-65
2021/12/06 00:17:03;;;;;;;20.10;12.43;;;2.90;99.90;;;;;;5033498;28;20045;-65
2021/12/06 00:19:30;;;;;;;21.35;13.77;;;2.90;99.90;;;;;;5026177;28;20070;-62
2021/12/06 00:21:57;;;;;;;23.88;14.10;;;2.90;99.90;;;;;;5032729;28;20086;-62
2021/12/06 00:24:23;;;;;;;22.83;15.40;;;2.90;99.90;;;;;;5031360;28;20513;-65
2021/12/06 00:26:49;;;;;;;29.42;17.30;;;2.90;99.90;;;;;;5033256;28;20064;-65
2021/12/06 00:29:15;;;;;;;26.38;17.10;;;2.90;99.90;;;;;;5027210;28;20116;-64
2021/12/06 00:31:41;;;;;;;25.17;17.58;;;2.80;99.90;;;;;;5051429;28;20466;-64
2021/12/06 00:34:13;;;;;;;28.27;18.67;;;2.90;99.90;;;;;;5027464;28;20049;-63
2021/12/06 00:36:41;;;;;;;27.38;18.27;;;2.80;99.90;;;;;;5035703;28;20071;-64
2021/12/06 00:39:11;;;;;;;26.15;16.38;;;2.90;99.90;;;;;;5044861;28;20070;-65
2021/12/06 00:41:38;;;;;;;30.25;21.17;;;2.80;99.90;;;;;;5033923;28;20049;-64
2021/12/06 00:44:07;;;;;;;30.45;19.52;;;2.90;99.90;;;;;;5041148;28;20029;-65
2021/12/06 00:46:34;;;;;;;37.05;22.30;;;2.90;99.90;;;;;;5037311;28;20037;-65
2021/12/06 00:49:00;;;;;;;29.38;20.23;;;2.80;99.90;;;;;;5032007;28;20033;-65
2021/12/06 00:51:26;;;;;;;32.88;20.92;;;2.90;99.90;;;;;;5031658;28;20063;-65
2021/12/06 00:53:51;;;;;;;36.72;22.95;;;2.80;99.90;;;;;;5041109;28;20048;-62
2021/12/06 00:56:18;;;;;;;34.35;22.88;;;2.80;99.90;;;;;;5039627;28;20044;-64
2021/12/06 00:58:43;;;;;;;35.15;22.50;;;2.80;99.90;;;;;;5037154;28;20175;-64
2021/12/06 01:01:10;;;;;;;35.90;23.17;;;2.70;99.90;;;;;;5030103;28;20049;-63
2021/12/06 01:03:39;;;;;;;38.60;23.95;;;2.70;99.90;;;;;;5025467;28;20419;-64
2021/12/06 01:06:07;;;;;;;38.30;23.85;;;2.70;99.90;;;;;;5036266;28;20033;-64
2021/12/06 01:08:33;;;;;;;39.45;24.48;;;2.60;99.90;;;;;;5040302;28;20040;-65
2021/12/06 01:10:59;;;;;;;40.28;25.77;;;2.60;99.90;;;;;;5052259;28;20047;-65
2021/12/06 01:13:26;;;;;;;40.70;24.98;;;2.60;99.90;;;;;;5037725;28;20041;-64
2021/12/06 01:15:52;;;;;;;38.40;24.60;;;2.60;99.90;;;;;;5035662;28;20054;-64
2021/12/06 01:18:19;;;;;;;38.42;24.58;;;2.70;99.90;;;;;;5046621;28;20111;-65
2021/12/06 01:20:53;;;;;;;39.50;24.85;;;2.70;99.90;;;;;;5016881;28;20041;-64
2021/12/06 01:23:23;;;;;;;41.38;25.98;;;2.70;99.90;;;;;;5032653;28;20138;-63
2021/12/06 01:26:11;;;;;;;41.03;26.48;;;2.80;99.90;;;;;;5016506;28;20446;-63
2021/12/06 01:31:43;;;;;;;;;;;2.80;99.90;;;;;;5035647;28;20071;-65
2021/12/06 01:39:22;;;;;;;35.40;22.85;;;2.80;99.90;;;;;;5019856;28;20049;-65
2021/12/06 01:41:58;;;;;;;41.03;26.48;;;2.70;99.90;;;;;;5031591;28;20091;-65
2021/12/06 01:44:39;;;;;;;42.35;23.95;;;2.80;99.90;;;;;;5023322;28;20047;-65
2021/12/06 01:47:06;;;;;;;41.25;25.13;;;2.80;99.90;;;;;;5032631;28;20136;-64
2021/12/06 01:49:36;;;;;;;37.80;23.13;;;2.70;99.90;;;;;;5033437;28;20192;-65
2021/12/06 01:52:07;;;;;;;45.00;25.92;;;2.80;99.90;;;;;;5019852;28;20056;-64
2021/12/06 01:54:33;;;;;;;46.42;27.08;;;2.80;99.90;;;;;;5040146;28;20044;-64
2021/12/06 01:56:59;;;;;;;43.38;26.10;;;2.80;99.90;;;;;;5019152;28;20098;-62
2021/12/06 01:59:26;;;;;;;39.10;24.38;;;2.70;99.90;;;;;;5043954;22;20045;-56
2021/12/06 02:01:52;;;;;;;40.13;24.00;;;2.70;99.90;;;;;;5014817;28;20123;-55
2021/12/06 02:04:19;;;;;;;44.65;25.50;;;2.70;99.90;;;;;;5013005;28;20092;-54
2021/12/06 02:06:45;;;;;;;42.42;24.55;;;2.70;99.90;;;;;;5014827;28;20392;-52
2021/12/06 02:09:14;;;;;;;43.13;24.35;;;2.80;99.90;;;;;;5023853;28;20052;-52
2021/12/06 02:11:41;;;;;;;39.92;24.25;;;2.90;99.90;;;;;;5012067;28;20315;-52
2021/12/06 02:14:40;;;;;;;45.88;25.85;;;2.80;99.90;;;;;;5016504;28;20069;-53
2021/12/06 02:19:31;;;;;;;45.80;26.23;;;2.70;99.90;;;;;;5004265;28;20448;-56
2021/12/06 02:21:57;;;;;;;43.83;24.50;;;2.80;99.90;;;;;;5009390;28;20373;-55
2021/12/06 02:24:23;;;;;;;44.45;27.38;;;2.80;99.90;;;;;;4996034;28;20081;-56
2021/12/06 02:26:51;;;;;;;42.05;24.75;;;2.80;99.90;;;;;;5002674;28;20476;-54
2021/12/06 02:29:19;;;;;;;40.42;24.85;;;2.80;99.90;;;;;;5017780;28;20492;-56
2021/12/06 02:31:45;;;;;;;44.63;25.33;;;2.80;99.90;;;;;;5002919;28;20083;-53
2021/12/06 02:34:11;;;;;;;44.53;26.67;;;2.80;99.90;;;;;;5017462;28;20724;-55
2021/12/06 02:36:37;;;;;;;45.92;26.88;;;2.80;99.90;;;;;;4991497;28;20140;-56
2021/12/06 02:39:08;;;;;;;47.85;27.25;;;2.80;99.90;;;;;;5018279;28;20163;-56
2021/12/06 02:41:34;;;;;;;47.22;26.65;;;2.80;99.90;;;;;;5002462;28;20041;-54
2021/12/06 02:43:59;;;;;;;43.00;25.50;;;2.80;99.90;;;;;;5002486;28;20156;-54
2021/12/06 02:46:25;;;;;;;46.00;26.33;;;2.80;99.90;;;;;;4975619;28;20256;-55
2021/12/06 02:48:51;;;;;;;45.75;27.02;;;2.80;99.90;;;;;;4993061;28;20034;-53
2021/12/06 02:51:18;;;;;;;45.25;26.45;;;2.80;99.90;;;;;;4985921;28;20111;-56
2021/12/06 02:53:45;;;;;;;41.05;23.30;;;2.80;99.90;;;;;;4975727;28;20195;-53
2021/12/06 02:56:39;;;;;;;43.28;25.13;;;2.80;99.90;;;;;;4998327;28;20053;-52
2021/12/06 02:59:02;;;;;;;42.53;25.08;;;2.80;99.90;;;;;;5005141;28;20164;-56
2021/12/06 03:01:38;;;;;;;41.60;23.95;;;2.80;99.90;;;;;;4995953;28;20050;-54
2021/12/06 03:04:05;;;;;;;43.47;26.00;;;2.80;99.90;;;;;;5001157;28;20041;-53
2021/12/06 03:06:32;;;;;;;44.47;24.85;;;2.70;99.90;;;;;;4999102;28;20128;-56
2021/12/06 03:09:10;;;;;;;45.03;24.15;;;2.80;99.90;;;;;;5006951;28;20095;-54
2021/12/06 03:11:41;;;;;;;44.00;24.33;;;2.80;99.90;;;;;;5011706;28;20045;-55
2021/12/06 03:14:14;;;;;;;48.20;26.00;;;2.80;99.90;;;;;;5010598;28;20061;-52
2021/12/06 03:16:40;;;;;;;51.50;27.50;;;2.80;99.90;;;;;;5000609;28;20462;-53
2021/12/06 03:19:07;;;;;;;49.75;26.10;;;2.80;99.90;;;;;;4984736;28;20123;-56
2021/12/06 03:21:34;;;;;;;48.95;25.77;;;2.70;99.90;;;;;;4995692;28;20497;-54
2021/12/06 03:24:00;;;;;;;43.38;24.15;;;2.80;99.90;;;;;;5015950;28;20485;-54
2021/12/06 03:26:27;;;;;;;50.33;26.80;;;2.80;99.90;;;;;;4997994;28;20040;-54
2021/12/06 03:28:54;;;;;;;44.45;23.60;;;2.80;99.90;;;;;;5001693;28;20390;-53
2021/12/06 03:31:20;;;;;;;48.13;26.65;;;2.80;99.90;;;;;;5002085;28;20500;-52
2021/12/06 03:33:49;;;;;;;51.35;27.35;;;2.80;99.90;;;;;;4993162;28;20044;-53
2021/12/06 03:36:17;;;;;;;47.88;27.25;;;2.80;99.90;;;;;;4993408;28;20064;-56
2021/12/06 03:38:43;;;;;;;52.80;27.85;;;2.80;99.90;;;;;;5005704;28;20099;-52
2021/12/06 03:41:11;;;;;;;52.08;27.55;;;2.80;99.90;;;;;;5023037;28;20049;-53
2021/12/06 03:43:39;;;;;;;47.25;25.33;;;2.80;99.90;;;;;;5020686;28;20042;-56
2021/12/06 03:46:05;;;;;;;51.22;28.77;;;2.80;99.90;;;;;;4997281;28;20034;-54
2021/12/06 03:48:31;;;;;;;52.75;27.95;;;2.90;99.90;;;;;;4995512;28;20517;-52
2021/12/06 03:50:58;;;;;;;53.70;27.33;;;2.90;99.90;;;;;;5002409;28;20500;-57
2021/12/06 03:53:25;;;;;;;51.50;28.42;;;2.90;99.90;;;;;;4998914;28;20129;-55
2021/12/06 03:55:51;;;;;;;46.83;26.17;;;2.90;99.90;;;;;;4997920;28;20459;-58
2021/12/06 03:58:17;;;;;;;54.30;29.25;;;2.80;99.90;;;;;;4999235;28;20041;-56
2021/12/06 04:00:42;;;;;;;54.55;28.38;;;2.90;99.90;;;;;;4988136;28;20176;-55
2021/12/06 04:03:09;;;;;;;56.75;30.15;;;2.90;99.90;;;;;;5004876;28;20063;-56
2021/12/06 04:05:35;;;;;;;50.85;25.98;;;2.80;99.90;;;;;;5003661;28;20095;-57
2021/12/06 04:08:01;;;;;;;56.50;29.30;;;2.80;99.90;;;;;;4989057;28;20049;-57
2021/12/06 04:10:27;;;;;;;58.80;29.50;;;2.80;99.90;;;;;;4987415;28;20397;-56
2021/12/06 04:12:58;;;;;;;59.38;29.65;;;2.80;99.90;;;;;;4999970;28;20096;-55
2021/12/06 04:15:28;;;;;;;64.10;31.67;;;2.80;99.90;;;;;;5003674;28;20101;-54
2021/12/06 04:17:54;;;;;;;67.07;32.60;;;2.80;99.90;;;;;;5009674;28;20111;-55
2021/12/06 04:20:20;;;;;;;62.08;31.42;;;2.70;99.90;;;;;;5021373;28;22857;-55
2021/12/06 04:22:46;;;;;;;71.80;33.63;;;2.80;99.90;;;;;;4994136;28;20037;-58
2021/12/06 04:25:14;;;;;;;70.90;33.15;;;2.80;99.90;;;;;;5016780;28;20401;-57
2021/12/06 04:27:40;;;;;;;64.20;32.25;;;2.70;99.90;;;;;;5008876;28;20416;-57
2021/12/06 04:30:09;;;;;;;69.00;31.80;;;2.80;99.90;;;;;;5009678;28;20057;-54
2021/12/06 04:32:35;;;;;;;71.55;32.53;;;2.80;99.90;;;;;;4987167;28;20049;-55
2021/12/06 04:35:02;;;;;;;74.53;35.72;;;2.80;99.90;;;;;;5007393;28;20037;-55
2021/12/06 04:37:28;;;;;;;64.70;31.30;;;2.80;99.90;;;;;;5008074;28;20106;-55
2021/12/06 04:39:54;;;;;;;72.43;34.53;;;2.80;99.90;;;;;;5003135;28;20054;-56
2021/12/06 04:42:20;;;;;;;74.70;35.90;;;2.80;99.90;;;;;;5009232;28;20037;-58
2021/12/06 04:44:47;;;;;;;71.05;32.17;;;2.80;99.90;;;;;;5007081;28;20041;-57
2021/12/06 04:47:13;;;;;;;78.32;33.05;;;2.80;99.90;;;;;;5020338;28;20030;-54
2021/12/06 04:49:39;;;;;;;71.30;33.50;;;2.80;99.90;;;;;;5012191;28;20508;-52
2021/12/06 04:52:09;;;;;;;74.45;33.75;;;2.80;99.90;;;;;;5000709;28;20092;-57
2021/12/06 04:54:40;;;;;;;66.93;31.15;;;2.80;99.90;;;;;;5010418;28;20103;-57
2021/12/06 04:57:18;;;;;;;62.90;31.70;;;2.80;99.90;;;;;;4998418;28;20069;-55
2021/12/06 04:59:51;;;;;;;61.00;29.55;;;2.90;99.90;;;;;;5007146;28;20041;-54
2021/12/06 05:02:36;;;;;;;61.95;29.40;;;2.90;99.90;;;;;;4998212;28;20381;-52
2021/12/06 05:05:10;;;;;;;64.18;31.52;;;3.00;99.90;;;;;;5005948;28;20099;-57
2021/12/06 05:07:42;;;;;;;66.97;32.42;;;3.00;99.90;;;;;;4998920;28;20045;-52
2021/12/06 05:10:10;;;;;;;68.72;31.38;;;3.00;99.90;;;;;;4999667;28;20459;-56
2021/12/06 05:12:36;;;;;;;62.58;30.35;;;3.00;99.90;;;;;;5007510;28;20599;-55
2021/12/06 05:15:04;;;;;;;60.30;29.35;;;3.00;99.90;;;;;;5005194;28;20049;-58
2021/12/06 05:17:31;;;;;;;55.85;28.30;;;3.00;99.90;;;;;;5004779;28;20103;-55
2021/12/06 05:19:57;;;;;;;61.08;29.00;;;3.00;99.90;;;;;;4991093;28;20489;-53
2021/12/06 05:22:24;;;;;;;61.65;30.48;;;3.00;99.90;;;;;;5013520;28;20041;-52
2021/12/06 05:24:51;;;;;;;51.65;26.05;;;3.00;99.90;;;;;;5018505;28;20042;-55
2021/12/06 05:27:23;;;;;;;56.30;27.33;;;3.00;99.90;;;;;;5002935;28;20041;-54
2021/12/06 05:29:52;;;;;;;54.25;28.38;;;3.00;99.90;;;;;;4999442;28;20037;-54
2021/12/06 05:32:18;;;;;;;53.72;25.48;;;3.00;99.90;;;;;;5006058;28;20174;-54
2021/12/06 05:34:46;;;;;;;60.83;29.42;;;3.00;99.90;;;;;;4999478;28;20040;-56
2021/12/06 05:37:14;;;;;;;56.05;27.10;;;3.00;99.90;;;;;;5001036;28;20064;-53
2021/12/06 05:39:41;;;;;;;50.88;25.48;;;3.00;99.90;;;;;;4996734;28;20505;-55
2021/12/06 05:42:10;;;;;;;54.35;28.08;;;3.00;99.90;;;;;;5014878;28;20168;-57
2021/12/06 05:44:36;;;;;;;59.03;29.40;;;3.00;99.90;;;;;;4996407;28;20423;-56
2021/12/06 05:47:03;;;;;;;57.22;30.38;;;3.00;99.90;;;;;;5015848;28;20037;-58
2021/12/06 05:49:29;;;;;;;53.03;26.77;;;3.00;99.90;;;;;;4995631;28;20036;-55
2021/12/06 05:51:56;;;;;;;52.65;26.98;;;3.00;99.90;;;;;;5002108;28;20049;-57
2021/12/06 05:54:22;;;;;;;55.13;27.58;;;3.00;99.90;;;;;;5003692;28;20068;-54
2021/12/06 05:56:48;;;;;;;57.88;28.75;;;3.00;99.90;;;;;;5000153;28;20052;-52
2021/12/06 05:59:14;;;;;;;50.25;24.98;;;3.00;99.90;;;;;;5006634;28;20399;-53
2021/12/06 06:01:40;;;;;;;58.00;28.60;;;3.00;99.90;;;;;;5006562;28;20038;-54
2021/12/06 06:04:06;;;;;;;56.20;27.77;;;3.00;99.90;;;;;;5000685;28;20037;-55
2021/12/06 06:06:35;;;;;;;56.15;27.30;;;3.10;99.90;;;;;;5011540;28;20081;-55
2021/12/06 06:09:03;;;;;;;57.42;27.85;;;3.00;99.90;;;;;;5018362;28;20028;-52
2021/12/06 06:11:29;;;;;;;57.60;27.80;;;3.00;99.90;;;;;;5002640;28;20216;-55
2021/12/06 06:13:55;;;;;;;52.30;25.58;;;3.00;99.90;;;;;;4993029;28;20052;-54
2021/12/06 06:16:22;;;;;;;54.53;26.25;;;3.00;99.90;;;;;;4997322;28;20125;-55
2021/12/06 06:18:50;;;;;;;53.55;26.48;;;3.00;99.90;;;;;;5019240;28;20084;-56
2021/12/06 06:21:18;;;;;;;61.03;27.55;;;3.00;99.90;;;;;;4995939;28;20053;-53
2021/12/06 06:23:43;;;;;;;52.47;25.40;;;3.00;99.90;;;;;;5003632;28;20520;-55
2021/12/06 06:26:09;;;;;;;56.15;26.75;;;3.00;99.90;;;;;;5013901;28;20223;-54
2021/12/06 06:28:35;;;;;;;51.80;26.02;;;3.00;99.90;;;;;;4996896;28;20901;-55
2021/12/06 06:31:02;;;;;;;56.10;27.60;;;3.00;99.90;;;;;;4964218;28;20393;-54
2021/12/06 06:33:27;;;;;;;60.50;28.35;;;3.00;99.90;;;;;;4990204;28;20053;-54
2021/12/06 06:35:53;;;;;;;55.65;26.15;;;3.00;99.90;;;;;;5002446;28;20558;-53
2021/12/06 06:38:20;;;;;;;53.92;27.33;;;3.00;99.90;;;;;;4981877;28;20033;-56
2021/12/06 06:40:46;;;;;;;57.40;26.52;;;3.00;99.90;;;;;;4983971;28;20048;-52
2021/12/06 06:43:12;;;;;;;52.03;26.33;;;3.00;99.90;;;;;;4995544;28;20052;-54
2021/12/06 06:45:38;;;;;;;51.85;26.10;;;3.00;99.90;;;;;;5003174;28;20692;-55
2021/12/06 06:48:04;;;;;;;50.80;26.27;;;3.00;99.90;;;;;;5022223;28;20532;-54
2021/12/06 06:50:29;;;;;;;58.92;27.35;;;3.10;99.90;;;;;;5003647;28;20037;-55
2021/12/06 06:52:55;;;;;;;51.00;26.15;;;3.00;99.90;;;;;;5004723;28;20087;-52
2021/12/06 06:55:22;;;;;;;51.65;25.90;;;3.10;99.90;;;;;;4995849;28;20045;-53
2021/12/06 06:57:50;;;;;;;60.22;28.75;;;3.10;99.90;;;;;;5005692;28;20069;-56
2021/12/06 07:00:38;;;;;;;52.88;26.73;;;3.10;99.90;;;;;;4985852;28;20145;-55
2021/12/06 07:03:06;;;;;;;58.30;27.85;;;3.10;99.90;;;;;;4998157;28;20206;-56
2021/12/06 07:05:32;;;;;;;60.00;29.13;;;3.10;99.90;;;;;;4989079;28;20042;-55
2021/12/06 07:07:58;;;;;;;62.13;29.17;;;3.10;99.90;;;;;;5014913;28;20055;-53
2021/12/06 07:10:24;;;;;;;60.58;28.35;;;3.10;99.90;;;;;;4996049;28;20041;-54
2021/12/06 07:12:52;;;;;;;61.35;28.80;;;3.20;99.90;;;;;;5010571;28;20034;-52
2021/12/06 07:15:25;;;;;;;69.70;29.98;;;3.10;99.90;;;;;;4982578;28;20468;-52
2021/12/06 07:17:51;;;;;;;66.93;30.48;;;3.10;99.90;;;;;;4996635;28;20165;-56
2021/12/06 07:20:18;;;;;;;65.30;30.80;;;3.10;99.90;;;;;;4973390;28;20489;-52
2021/12/06 07:22:45;;;;;;;64.47;29.35;;;3.10;99.90;;;;;;5000451;28;20060;-53
2021/12/06 07:25:13;;;;;;;66.80;32.47;;;3.20;99.90;;;;;;4990887;28;20489;-55
2021/12/06 07:27:39;;;;;;;68.20;31.05;;;3.10;99.90;;;;;;5016447;28;20049;-55
2021/12/06 07:30:06;;;;;;;64.95;30.27;;;3.10;99.90;;;;;;4984938;28;20042;-53
2021/12/06 07:32:31;;;;;;;67.68;29.90;;;3.10;99.90;;;;;;5009471;28;20057;-56
2021/12/06 07:34:57;;;;;;;57.65;28.92;;;3.20;99.90;;;;;;4998132;28;20042;-56
2021/12/06 07:37:23;;;;;;;70.65;34.13;;;3.20;99.90;;;;;;4995906;28;20621;-52
2021/12/06 07:39:49;;;;;;;64.00;30.80;;;3.10;99.90;;;;;;4974849;28;20045;-56
2021/12/06 07:42:14;;;;;;;64.03;31.05;;;3.20;99.90;;;;;;5005662;28;20084;-53
2021/12/06 07:44:41;;;;;;;63.17;30.33;;;3.20;99.90;;;;;;4988377;28;20041;-53
2021/12/06 07:47:08;;;;;;;61.42;30.02;;;3.20;99.90;;;;;;5003581;28;20053;-55
2021/12/06 07:49:37;;;;;;;68.13;29.95;;;3.20;99.90;;;;;;4991750;28;20119;-54
2021/12/06 07:52:04;;;;;;;62.28;30.83;;;3.20;99.90;;;;;;5015580;28;20052;-54
2021/12/06 07:54:29;;;;;;;65.95;30.98;;;3.20;99.90;;;;;;5020778;28;20099;-53
2021/12/06 07:56:55;;;;;;;62.67;30.35;;;3.20;99.90;;;;;;4996901;28;20620;-52
2021/12/06 07:59:21;;;;;;;65.70;30.52;;;3.20;99.90;;;;;;5019524;28;20095;-56
2021/12/06 08:01:47;;;;;;;64.90;29.92;;;3.20;99.90;;;;;;5014624;23;20034;-63
2021/12/06 08:04:14;;;;;;;65.22;29.73;;;3.30;99.90;;;;;;4998805;28;20067;-63
2021/12/06 08:06:39;;;;;;;62.75;30.50;;;3.30;99.90;;;;;;4982986;28;20041;-63
2021/12/06 08:09:06;;;;;;;61.28;29.05;;;3.30;99.90;;;;;;4965855;28;20051;-63
2021/12/06 08:11:32;;;;;;;68.00;31.02;;;3.30;99.90;;;;;;4980145;28;20072;-64
2021/12/06 08:13:59;;;;;;;64.00;29.98;;;3.30;99.90;;;;;;4984003;28;20046;-64
2021/12/06 08:16:28;;;;;;;59.38;28.40;;;3.30;99.90;;;;;;4968794;28;20446;-63
2021/12/06 08:18:55;;;;;;;57.80;27.35;;;3.30;99.90;;;;;;4975209;28;20041;-63
2021/12/06 08:21:22;;;;;;;66.70;30.60;;;3.30;99.90;;;;;;4986534;28;20074;-63
2021/12/06 08:23:50;;;;;;;66.32;29.95;;;3.30;99.90;;;;;;4980236;28;20050;-63
2021/12/06 08:26:19;;;;;;;69.28;31.65;;;3.30;99.90;;;;;;4972326;28;20515;-64
2021/12/06 08:28:46;;;;;;;61.17;28.05;;;3.30;99.90;;;;;;4965514;28;20042;-63
2021/12/06 08:31:13;;;;;;;58.65;28.60;;;3.30;99.90;;;;;;4993285;28;20410;-63
2021/12/06 08:33:40;;;;;;;56.97;27.02;;;3.30;99.90;;;;;;4992220;28;20270;-63
2021/12/06 08:36:08;;;;;;;65.80;28.60;;;3.30;99.90;;;;;;4969774;28;20149;-64
2021/12/06 08:38:35;;;;;;;61.40;27.67;;;3.30;99.90;;;;;;4987120;28;20088;-64
2021/12/06 08:41:06;;;;;;;60.65;26.85;;;3.30;99.90;;;;;;4961495;28;20512;-64
2021/12/06 08:43:32;;;;;;;66.28;28.23;;;3.30;99.90;;;;;;4980619;28;20486;-64
2021/12/06 08:46:06;;;;;;;69.72;29.58;;;3.40;99.90;;;;;;5002134;28;20175;-64
2021/12/06 08:48:36;;;;;;;68.90;29.67;;;3.30;99.90;;;;;;4983060;28;20425;-64
2021/12/06 08:51:07;;;;;;;61.08;27.95;;;3.30;99.90;;;;;;4981694;28;20416;-64
2021/12/06 08:53:33;;;;;;;67.55;31.05;;;3.40;99.90;;;;;;4983818;28;20049;-64
2021/12/06 08:55:59;;;;;;;63.92;28.55;;;3.30;99.90;;;;;;4963432;28;20038;-64
2021/12/06 08:58:25;;;;;;;62.20;29.00;;;3.40;99.90;;;;;;4952533;28;20038;-63
2021/12/06 09:00:52;;;;;;;69.97;31.73;;;3.30;99.90;;;;;;4964243;28;20034;-64
2021/12/06 09:03:17;;;;;;;74.25;30.55;;;3.40;99.90;;;;;;4953769;28;20195;-64
2021/12/06 09:05:49;;;;;;;76.82;31.30;;;3.30;99.90;;;;;;4987533;28;20159;-64
2021/12/06 09:08:15;;;;;;;70.63;29.88;;;3.30;99.90;;;;;;4972243;28;20092;-64
2021/12/06 09:10:42;;;;;;;75.47;30.88;;;3.30;99.90;;;;;;4970125;28;20046;-63
2021/12/06 09:13:09;;;;;;;82.30;32.05;;;3.40;99.90;;;;;;4969940;28;20045;-64
2021/12/06 09:15:35;;;;;;;83.75;32.08;;;3.40;99.90;;;;;;4979605;28;20125;-64
2021/12/06 09:18:01;;;;;;;71.10;31.27;;;3.40;99.90;;;;;;4977883;28;20038;-64
2021/12/06 09:20:31;;;;;;;78.15;31.42;;;3.40;99.90;;;;;;4999526;28;20595;-64
2021/12/06 09:22:58;;;;;;;67.85;28.55;;;3.40;99.90;;;;;;4982831;28;20437;-64
2021/12/06 09:25:28;;;;;;;84.82;34.00;;;3.50;99.90;;;;;;5012929;28;20480;-64
2021/12/06 09:27:54;;;;;;;72.00;29.85;;;3.50;99.90;;;;;;4985895;28;20488;-64
2021/12/06 09:30:24;;;;;;;80.10;31.75;;;3.50;99.90;;;;;;4990721;28;20066;-64
2021/12/06 09:32:50;;;;;;;63.90;27.35;;;3.50;99.90;;;;;;4986290;28;20133;-64
2021/12/06 09:35:22;;;;;;;77.03;31.63;;;3.50;99.90;;;;;;4982136;28;20069;-64
2021/12/06 09:37:48;;;;;;;79.18;33.47;;;3.60;99.90;;;;;;4970914;28;21095;-64
2021/12/06 09:40:15;;;;;;;80.90;31.63;;;3.60;99.90;;;;;;4974218;28;20406;-64
2021/12/06 09:42:45;;;;;;;81.50;32.90;;;3.60;99.90;;;;;;4952982;28;20124;-64
2021/12/06 09:45:15;;;;;;;78.82;33.15;;;3.60;99.90;;;;;;4987669;28;20054;-64
2021/12/06 09:47:45;;;;;;;80.72;32.10;;;3.60;99.90;;;;;;4980814;28;20034;-67
2021/12/06 09:50:11;;;;;;;89.63;32.88;;;3.60;99.90;;;;;;4978317;28;20462;-64
2021/12/06 09:52:37;;;;;;;78.47;31.55;;;3.60;99.90;;;;;;4953631;28;20050;-64
2021/12/06 09:55:03;;;;;;;80.50;33.40;;;3.70;99.90;;;;;;4959023;28;20048;-64
2021/12/06 09:57:29;;;;;;;87.50;33.38;;;3.70;99.90;;;;;;4978178;28;20488;-64
2021/12/06 09:59:55;;;;;;;82.25;33.75;;;3.70;99.90;;;;;;4977843;28;20388;-64
2021/12/06 10:02:21;;;;;;;79.85;31.20;;;3.70;99.90;;;;;;4959551;28;20050;-64
2021/12/06 10:04:53;;;;;;;79.53;33.10;;;3.70;99.90;;;;;;4990131;28;20046;-64
2021/12/06 10:07:20;;;;;;;74.57;30.55;;;3.70;99.90;;;;;;5000446;28;20132;-64
2021/12/06 10:09:46;;;;;;;80.10;32.10;;;3.70;99.90;;;;;;5003445;28;20630;-66
2021/12/06 10:12:16;;;;;;;80.75;32.90;;;3.70;99.90;;;;;;4980753;28;20157;-64
2021/12/06 10:14:45;;;;;;;82.68;33.22;;;3.70;99.90;;;;;;4963908;28;20045;-64
2021/12/06 10:17:15;;;;;;;72.53;31.05;;;3.70;99.90;;;;;;5000215;28;20029;-64
2021/12/06 10:19:42;;;;;;;71.68;30.33;;;3.70;99.90;;;;;;4988324;28;20132;-64
2021/12/06 10:22:08;;;;;;;77.65;32.33;;;3.80;99.90;;;;;;4985191;28;20056;-64
2021/12/06 10:24:35;;;;;;;77.57;32.83;;;3.70;99.90;;;;;;4983816;28;20041;-64
2021/12/06 10:27:14;;;;;;;77.85;33.35;;;3.80;99.90;;;;;;4970330;28;20026;-64
2021/12/06 10:29:48;;;;;;;76.28;33.35;;;3.80;99.90;;;;;;4982314;28;20522;-65
2021/12/06 10:32:20;;;;;;;82.82;35.22;;;3.80;99.90;;;;;;5000494;28;20608;-64
2021/12/06 10:35:02;;;;;;;69.43;31.10;;;3.80;99.90;;;;;;4979063;28;20080;-65
2021/12/06 10:37:39;;;;;;;64.30;28.50;;;3.80;99.90;;;;;;4991327;28;20050;-65
2021/12/06 10:40:08;;;;;;;62.63;28.95;;;3.70;99.90;;;;;;4995462;28;20580;-64
2021/12/06 10:42:39;;;;;;;58.75;27.35;;;3.70;99.90;;;;;;4989573;28;20029;-64
2021/12/06 10:45:13;;;;;;;68.15;31.05;;;3.70;99.90;;;;;;4979438;28;20037;-65
2021/12/06 10:47:39;;;;;;;61.50;27.30;;;3.70;99.90;;;;;;4989895;28;20599;-64
2021/12/06 10:50:16;;;;;;;62.67;27.58;;;3.70;99.90;;;;;;4952981;28;20209;-65
2021/12/06 10:52:51;;;;;;;58.97;26.00;;;3.70;99.90;;;;;;5004585;28;20083;-65
2021/12/06 10:55:18;;;;;;;53.55;24.45;;;3.70;99.90;;;;;;4967845;28;20037;-65
2021/12/06 10:57:54;;;;;;;59.22;26.23;;;3.70;99.90;;;;;;4984632;28;20068;-65
2021/12/06 11:00:49;;;;;;;59.17;27.35;;;3.70;99.90;;;;;;4986522;28;20044;-65
2021/12/06 11:03:22;;;;;;;58.63;26.85;;;3.70;99.90;;;;;;4985618;28;20525;-65
2021/12/06 11:05:55;;;;;;;65.82;29.92;;;3.70;99.90;;;;;;4982711;28;20042;-65
2021/12/06 11:08:23;;;;;;;60.67;30.92;;;3.70;99.90;;;;;;4989131;28;20064;-65
2021/12/06 11:10:58;;;;;;;63.08;30.45;;;3.70;99.90;;;;;;4985464;28;20130;-65
2021/12/06 11:13:30;;;;;;;63.22;28.92;;;3.70;99.90;;;;;;4991577;28;20042;-65
2021/12/06 11:15:58;;;;;;;64.95;29.05;;;3.70;99.90;;;;;;4985658;28;20162;-65
2021/12/06 11:18:41;;;;;;;67.03;27.58;;;3.70;99.90;;;;;;4985744;28;20054;-65
2021/12/06 11:21:25;;;;;;;69.18;31.42;;;3.70;99.90;;;;;;4999359;28;20041;-65
2021/12/06 11:24:17;;;;;;;52.92;25.90;;;3.70;99.90;;;;;;4988997;28;20138;-65
2021/12/06 11:26:52;;;;;;;57.45;26.85;;;3.60;99.90;;;;;;5003542;28;20067;-65
2021/12/06 11:29:24;;;;;;;55.17;25.67;;;3.70;99.90;;;;;;4975179;28;20165;-65
2021/12/06 11:32:07;;;;;;;60.90;26.30;;;3.60;99.90;;;;;;4982747;28;20512;-65
2021/12/06 11:34:46;;;;;;;48.67;23.33;;;3.60;99.90;;;;;;4981407;28;20050;-65
2021/12/06 11:37:34;;;;;;;49.30;24.60;;;3.60;99.90;;;;;;4979737;28;20057;-65
2021/12/06 11:40:20;;;;;;;48.42;21.50;;;3.60;99.90;;;;;;4974495;28;20046;-65
2021/12/06 11:42:59;;;;;;;45.08;21.55;;;3.60;99.90;;;;;;4981249;28;20046;-65
2021/12/06 11:45:45;;;;;;;42.17;19.50;;;3.50;99.90;;;;;;4977041;28;20293;-65
2021/12/06 11:48:24;;;;;;;47.83;22.50;;;3.60;99.90;;;;;;5009796;28;20060;-65
2021/12/06 11:51:00;;;;;;;52.88;22.45;;;3.60;99.90;;;;;;4983986;28;20061;-65
2021/12/06 11:53:39;;;;;;;53.55;23.50;;;3.50;99.90;;;;;;4999103;28;20385;-65
2021/12/06 11:56:14;;;;;;;53.05;23.13;;;3.50;99.90;;;;;;4984147;28;20280;-65
2021/12/06 11:58:51;;;;;;;50.83;23.10;;;3.50;99.90;;;;;;4974585;28;20064;-65
2021/12/06 12:01:17;;;;;;;55.22;24.17;;;3.50;99.90;;;;;;4974078;28;20088;-65
2021/12/06 12:03:47;;;;;;;51.97;23.52;;;3.50;99.90;;;;;;4975165;28;20042;-65
2021/12/06 12:06:36;;;;;;;54.13;24.42;;;3.50;99.90;;;;;;4984487;28;20471;-65
2021/12/06 12:09:10;;;;;;;55.50;24.88;;;3.50;99.90;;;;;;4988189;28;22113;-65
2021/12/06 12:11:51;;;;;;;51.17;25.95;;;3.50;99.90;;;;;;4992164;28;20481;-65
2021/12/06 12:14:27;;;;;;;53.00;25.45;;;3.50;99.90;;;;;;4971027;28;20057;-65
2021/12/06 12:16:53;;;;;;;60.70;27.63;;;3.50;99.90;;;;;;4990697;28;20048;-65
2021/12/06 12:19:19;;;;;;;64.85;27.60;;;3.50;99.90;;;;;;4962382;28;20477;-64
2021/12/06 12:21:47;;;;;;;62.17;29.92;;;3.50;99.90;;;;;;4962016;28;20034;-64
2021/12/06 12:24:13;;;;;;;67.82;29.20;;;3.40;99.90;;;;;;4996594;28;20374;-64
2021/12/06 12:26:52;;;;;;;70.32;30.00;;;3.50;99.90;;;;;;4985204;28;20092;-64
2021/12/06 12:29:24;;;;;;;66.72;30.15;;;3.50;99.90;;;;;;5001535;28;20054;-64
2021/12/06 12:32:03;;;;;;;73.85;32.63;;;3.50;99.90;;;;;;4980791;28;20056;-64
2021/12/06 12:34:35;;;;;;;74.20;28.67;;;3.50;99.90;;;;;;5001259;28;20054;-63
2021/12/06 12:37:01;;;;;;;71.78;30.83;;;3.50;99.90;;;;;;4973967;28;20793;-65
2021/12/06 12:39:28;;;;;;;80.28;32.67;;;3.50;99.90;;;;;;4968800;28;20046;-64
2021/12/06 12:41:58;;;;;;;80.50;34.45;;;3.50;99.90;;;;;;4957957;28;20485;-64
2021/12/06 12:44:38;;;;;;;80.47;32.80;;;3.60;99.90;;;;;;4984284;28;20497;-64
2021/12/06 12:47:20;;;;;;;79.88;34.83;;;3.60;99.90;;;;;;4980010;28;20112;-64
2021/12/06 12:49:55;;;;;;;81.07;32.30;;;3.60;99.90;;;;;;4977061;28;20077;-64
2021/12/06 12:52:43;;;;;;;79.85;32.50;;;3.60;99.90;;;;;;4982897;28;20042;-64
2021/12/06 12:55:31;;;;;;;80.07;33.17;;;3.60;99.90;;;;;;4971359;28;20377;-64
2021/12/06 12:58:15;;;;;;;82.25;32.65;;;3.60;99.90;;;;;;4984973;28;20054;-64
2021/12/06 13:00:52;;;;;;;79.82;32.85;;;3.70;99.90;;;;;;5007775;28;20049;-63